sensor_id;sensor_type;location;lat;lon;timestamp;P1;durP1;ratioP1;P2;durP2;ratioP2
19679;SDS011;9989;48.962;9.182;2022-08-16T00:00:23;8.43;;;2.83;;
19679;SDS011;9989;48.962;9.182;2022-08-16T00:02:50;8.10;;;3.37;;
19679;SDS011;9989;48.962;9.182;2022-08-16T00:05:17;7.60;;;3.57;;
19679;SDS011;9989;48.962;9.182;2022-08-16T00:07:43;10.10;;;3.50;;
19679;SDS011;9989;48.962;9.182;2022-08-16T00:10:09;7.63;;;3.17;;
19679;SDS011;9989;48.962;9.182;2022-08-16T00:12:37;7.47;;;3.37;;
19679;SDS011;9989;48.962;9.182;2022-08-16T00:15:08;7.43;;;3.10;;
19679;SDS011;9989;48.962;9.182;2022-08-16T00:17:41;8.63;;;3.07;;
19679;SDS011;9989;48.962;9.182;2022-08-16T00:20:07;9.10;;;3.83;;
19679;SDS011;9989;48.962;9.182;2022-08-16T00:22:38;7.27;;;3.40;;
19679;SDS011;9989;48.962;9.182;2022-08-16T00:25:07;8.87;;;3.60;;
19679;SDS011;9989;48.962;9.182;2022-08-16T00:27:34;7.33;;;3.57;;
19679;SDS011;9989;48.962;9.182;2022-08-16T00:30:00;7.67;;;3.57;;
19679;SDS011;9989;48.962;9.182;2022-08-16T00:32:28;6.80;;;3.53;;
19679;SDS011;9989;48.962;9.182;2022-08-16T00:34:53;7.87;;;3.40;;
19679;SDS011;9989;48.962;9.182;2022-08-16T00:37:20;7.20;;;3.60;;
19679;SDS011;9989;48.962;9.182;2022-08-16T00:39:47;7.10;;;3.37;;
19679;SDS011;9989;48.962;9.182;2022-08-16T00:42:13;7.30;;;3.50;;
19679;SDS011;9989;48.962;9.182;2022-08-16T00:44:39;7.77;;;3.43;;
19679;SDS011;9989;48.962;9.182;2022-08-16T00:47:11;7.37;;;3.50;;
19679;SDS011;9989;48.962;9.182;2022-08-16T00:49:40;7.77;;;3.30;;
19679;SDS011;9989;48.962;9.182;2022-08-16T00:52:06;10.93;;;4.20;;
19679;SDS011;9989;48.962;9.182;2022-08-16T00:54:31;7.87;;;4.10;;
19679;SDS011;9989;48.962;9.182;2022-08-16T00:56:58;7.40;;;3.17;;
19679;SDS011;9989;48.962;9.182;2022-08-16T00:59:27;6.77;;;3.20;;
19679;SDS011;9989;48.962;9.182;2022-08-16T01:01:55;8.13;;;3.77;;
19679;SDS011;9989;48.962;9.182;2022-08-16T01:04:22;6.43;;;3.17;;
19679;SDS011;9989;48.962;9.182;2022-08-16T01:06:50;8.03;;;3.83;;
19679;SDS011;9989;48.962;9.182;2022-08-16T01:09:16;6.43;;;3.23;;
19679;SDS011;9989;48.962;9.182;2022-08-16T01:11:42;7.83;;;3.90;;
19679;SDS011;9989;48.962;9.182;2022-08-16T01:14:11;8.00;;;3.50;;
19679;SDS011;9989;48.962;9.182;2022-08-16T01:16:50;8.97;;;3.50;;
19679;SDS011;9989;48.962;9.182;2022-08-16T01:24:36;8.13;;;3.73;;
19679;SDS011;9989;48.962;9.182;2022-08-16T01:27:19;8.87;;;3.80;;
19679;SDS011;9989;48.962;9.182;2022-08-16T01:29:56;8.47;;;4.20;;
19679;SDS011;9989;48.962;9.182;2022-08-16T01:32:28;9.80;;;4.10;;
19679;SDS011;9989;48.962;9.182;2022-08-16T01:34:56;9.30;;;3.60;;
19679;SDS011;9989;48.962;9.182;2022-08-16T01:37:21;9.50;;;4.00;;
19679;SDS011;9989;48.962;9.182;2022-08-16T01:39:47;7.83;;;3.77;;
19679;SDS011;9989;48.962;9.182;2022-08-16T01:42:13;11.37;;;4.40;;
19679;SDS011;9989;48.962;9.182;2022-08-16T01:44:39;7.43;;;3.73;;
19679;SDS011;9989;48.962;9.182;2022-08-16T01:47:06;8.20;;;3.67;;
19679;SDS011;9989;48.962;9.182;2022-08-16T01:49:33;8.63;;;3.63;;
19679;SDS011;9989;48.962;9.182;2022-08-16T01:52:03;6.87;;;3.60;;
19679;SDS011;9989;48.962;9.182;2022-08-16T01:54:31;8.83;;;3.90;;
19679;SDS011;9989;48.962;9.182;2022-08-16T01:56:57;8.10;;;3.90;;
19679;SDS011;9989;48.962;9.182;2022-08-16T01:59:24;10.73;;;4.00;;
19679;SDS011;9989;48.962;9.182;2022-08-16T02:01:51;11.60;;;4.00;;
19679;SDS011;9989;48.962;9.182;2022-08-16T02:04:17;10.23;;;3.93;;
19679;SDS011;9989;48.962;9.182;2022-08-16T02:06:44;8.17;;;3.67;;
19679;SDS011;9989;48.962;9.182;2022-08-16T02:09:10;9.10;;;4.47;;
19679;SDS011;9989;48.962;9.182;2022-08-16T02:11:36;9.30;;;3.83;;
19679;SDS011;9989;48.962;9.182;2022-08-16T02:14:04;8.50;;;4.33;;
19679;SDS011;9989;48.962;9.182;2022-08-16T02:16:30;7.57;;;4.13;;
19679;SDS011;9989;48.962;9.182;2022-08-16T02:18:56;8.33;;;4.13;;
19679;SDS011;9989;48.962;9.182;2022-08-16T02:21:23;7.53;;;3.53;;
19679;SDS011;9989;48.962;9.182;2022-08-16T02:23:49;7.73;;;4.03;;
19679;SDS011;9989;48.962;9.182;2022-08-16T02:26:14;7.37;;;4.10;;
19679;SDS011;9989;48.962;9.182;2022-08-16T02:28:40;7.67;;;3.50;;
19679;SDS011;9989;48.962;9.182;2022-08-16T02:31:08;8.03;;;4.00;;
19679;SDS011;9989;48.962;9.182;2022-08-16T02:33:35;7.87;;;3.67;;
19679;SDS011;9989;48.962;9.182;2022-08-16T02:36:02;8.10;;;4.40;;
19679;SDS011;9989;48.962;9.182;2022-08-16T02:38:28;7.97;;;3.77;;
19679;SDS011;9989;48.962;9.182;2022-08-16T02:40:55;8.37;;;3.90;;
19679;SDS011;9989;48.962;9.182;2022-08-16T02:43:25;7.17;;;3.63;;
19679;SDS011;9989;48.962;9.182;2022-08-16T02:45:53;7.57;;;3.70;;
19679;SDS011;9989;48.962;9.182;2022-08-16T02:48:20;7.53;;;3.63;;
19679;SDS011;9989;48.962;9.182;2022-08-16T02:50:46;9.10;;;4.00;;
19679;SDS011;9989;48.962;9.182;2022-08-16T02:53:11;6.97;;;3.60;;
19679;SDS011;9989;48.962;9.182;2022-08-16T02:55:37;9.13;;;3.30;;
19679;SDS011;9989;48.962;9.182;2022-08-16T02:58:03;8.17;;;3.40;;
19679;SDS011;9989;48.962;9.182;2022-08-16T03:00:29;7.40;;;3.70;;
19679;SDS011;9989;48.962;9.182;2022-08-16T03:02:55;6.73;;;3.83;;
19679;SDS011;9989;48.962;9.182;2022-08-16T03:05:21;7.13;;;3.97;;
19679;SDS011;9989;48.962;9.182;2022-08-16T03:07:48;7.10;;;3.93;;
19679;SDS011;9989;48.962;9.182;2022-08-16T03:10:14;8.40;;;4.23;;
19679;SDS011;9989;48.962;9.182;2022-08-16T03:12:39;9.13;;;4.20;;
19679;SDS011;9989;48.962;9.182;2022-08-16T03:15:08;7.70;;;4.27;;
19679;SDS011;9989;48.962;9.182;2022-08-16T03:17:35;10.47;;;4.67;;
19679;SDS011;9989;48.962;9.182;2022-08-16T03:20:02;9.70;;;4.97;;
19679;SDS011;9989;48.962;9.182;2022-08-16T03:22:32;10.20;;;4.80;;
19679;SDS011;9989;48.962;9.182;2022-08-16T03:24:58;9.20;;;4.83;;
19679;SDS011;9989;48.962;9.182;2022-08-16T03:27:28;10.20;;;4.20;;
19679;SDS011;9989;48.962;9.182;2022-08-16T03:29:55;8.07;;;4.13;;
19679;SDS011;9989;48.962;9.182;2022-08-16T03:32:21;11.03;;;4.47;;
19679;SDS011;9989;48.962;9.182;2022-08-16T03:34:47;8.37;;;4.43;;
19679;SDS011;9989;48.962;9.182;2022-08-16T03:37:12;9.33;;;4.63;;
19679;SDS011;9989;48.962;9.182;2022-08-16T03:39:38;8.73;;;4.33;;
19679;SDS011;9989;48.962;9.182;2022-08-16T03:42:04;8.03;;;4.63;;
19679;SDS011;9989;48.962;9.182;2022-08-16T03:44:31;10.23;;;4.80;;
19679;SDS011;9989;48.962;9.182;2022-08-16T03:46:57;9.33;;;4.47;;
19679;SDS011;9989;48.962;9.182;2022-08-16T03:49:23;9.57;;;4.83;;
19679;SDS011;9989;48.962;9.182;2022-08-16T03:51:49;8.23;;;4.50;;
19679;SDS011;9989;48.962;9.182;2022-08-16T03:54:14;11.97;;;5.20;;
19679;SDS011;9989;48.962;9.182;2022-08-16T03:56:40;8.40;;;4.80;;
19679;SDS011;9989;48.962;9.182;2022-08-16T03:59:06;8.87;;;4.27;;
19679;SDS011;9989;48.962;9.182;2022-08-16T04:01:32;8.00;;;4.30;;
19679;SDS011;9989;48.962;9.182;2022-08-16T04:04:00;8.10;;;4.30;;
19679;SDS011;9989;48.962;9.182;2022-08-16T04:06:26;9.40;;;4.33;;
19679;SDS011;9989;48.962;9.182;2022-08-16T04:08:52;7.77;;;3.90;;
19679;SDS011;9989;48.962;9.182;2022-08-16T04:11:17;9.00;;;4.07;;
19679;SDS011;9989;48.962;9.182;2022-08-16T04:13:43;7.80;;;3.97;;
19679;SDS011;9989;48.962;9.182;2022-08-16T04:16:09;7.60;;;3.80;;
19679;SDS011;9989;48.962;9.182;2022-08-16T04:18:36;9.90;;;4.93;;
19679;SDS011;9989;48.962;9.182;2022-08-16T04:21:02;8.13;;;4.40;;
19679;SDS011;9989;48.962;9.182;2022-08-16T04:23:29;8.83;;;4.97;;
19679;SDS011;9989;48.962;9.182;2022-08-16T04:25:54;8.03;;;4.80;;
19679;SDS011;9989;48.962;9.182;2022-08-16T04:28:20;8.87;;;4.53;;
19679;SDS011;9989;48.962;9.182;2022-08-16T04:30:45;8.27;;;4.37;;
19679;SDS011;9989;48.962;9.182;2022-08-16T04:33:11;8.20;;;4.47;;
19679;SDS011;9989;48.962;9.182;2022-08-16T04:35:37;8.87;;;4.83;;
19679;SDS011;9989;48.962;9.182;2022-08-16T04:38:03;9.23;;;4.40;;
19679;SDS011;9989;48.962;9.182;2022-08-16T04:40:29;8.83;;;4.70;;
19679;SDS011;9989;48.962;9.182;2022-08-16T04:42:54;8.83;;;4.70;;
19679;SDS011;9989;48.962;9.182;2022-08-16T04:45:20;8.80;;;4.40;;
19679;SDS011;9989;48.962;9.182;2022-08-16T04:47:46;9.07;;;4.87;;
19679;SDS011;9989;48.962;9.182;2022-08-16T04:50:19;9.73;;;5.00;;
19679;SDS011;9989;48.962;9.182;2022-08-16T04:52:47;10.90;;;4.70;;
19679;SDS011;9989;48.962;9.182;2022-08-16T04:55:18;8.60;;;4.63;;
19679;SDS011;9989;48.962;9.182;2022-08-16T04:57:50;12.50;;;5.10;;
19679;SDS011;9989;48.962;9.182;2022-08-16T05:00:18;9.60;;;4.67;;
19679;SDS011;9989;48.962;9.182;2022-08-16T05:02:53;9.00;;;4.77;;
19679;SDS011;9989;48.962;9.182;2022-08-16T05:05:19;9.23;;;4.90;;
19679;SDS011;9989;48.962;9.182;2022-08-16T05:07:46;8.93;;;4.20;;
19679;SDS011;9989;48.962;9.182;2022-08-16T05:10:12;9.23;;;4.93;;
19679;SDS011;9989;48.962;9.182;2022-08-16T05:12:38;9.67;;;5.53;;
19679;SDS011;9989;48.962;9.182;2022-08-16T05:15:04;8.87;;;5.00;;
19679;SDS011;9989;48.962;9.182;2022-08-16T05:17:30;11.00;;;5.57;;
19679;SDS011;9989;48.962;9.182;2022-08-16T05:19:56;9.20;;;5.10;;
19679;SDS011;9989;48.962;9.182;2022-08-16T05:22:22;9.43;;;4.83;;
19679;SDS011;9989;48.962;9.182;2022-08-16T05:24:48;9.20;;;5.03;;
19679;SDS011;9989;48.962;9.182;2022-08-16T05:27:14;12.37;;;4.80;;
19679;SDS011;9989;48.962;9.182;2022-08-16T05:29:40;9.60;;;4.90;;
19679;SDS011;9989;48.962;9.182;2022-08-16T05:32:06;9.23;;;4.50;;
19679;SDS011;9989;48.962;9.182;2022-08-16T05:34:32;8.70;;;4.33;;
19679;SDS011;9989;48.962;9.182;2022-08-16T05:36:57;8.60;;;4.80;;
19679;SDS011;9989;48.962;9.182;2022-08-16T05:39:23;9.30;;;5.00;;
19679;SDS011;9989;48.962;9.182;2022-08-16T05:41:50;9.60;;;5.13;;
19679;SDS011;9989;48.962;9.182;2022-08-16T05:44:17;9.87;;;4.87;;
19679;SDS011;9989;48.962;9.182;2022-08-16T05:46:44;9.50;;;5.07;;
19679;SDS011;9989;48.962;9.182;2022-08-16T05:49:10;9.33;;;5.10;;
19679;SDS011;9989;48.962;9.182;2022-08-16T05:51:43;11.13;;;5.00;;
19679;SDS011;9989;48.962;9.182;2022-08-16T05:54:11;10.30;;;4.87;;
19679;SDS011;9989;48.962;9.182;2022-08-16T05:56:38;10.37;;;5.27;;
19679;SDS011;9989;48.962;9.182;2022-08-16T05:59:05;10.83;;;6.00;;
19679;SDS011;9989;48.962;9.182;2022-08-16T06:01:32;10.77;;;5.33;;
19679;SDS011;9989;48.962;9.182;2022-08-16T06:03:58;8.93;;;5.17;;
19679;SDS011;9989;48.962;9.182;2022-08-16T06:06:24;10.07;;;5.13;;
19679;SDS011;9989;48.962;9.182;2022-08-16T06:08:50;9.80;;;4.93;;
19679;SDS011;9989;48.962;9.182;2022-08-16T06:11:15;10.77;;;5.23;;
19679;SDS011;9989;48.962;9.182;2022-08-16T06:13:41;9.33;;;5.57;;
19679;SDS011;9989;48.962;9.182;2022-08-16T06:16:07;10.47;;;5.40;;
19679;SDS011;9989;48.962;9.182;2022-08-16T06:18:33;8.93;;;4.43;;
19679;SDS011;9989;48.962;9.182;2022-08-16T06:20:58;9.10;;;4.77;;
19679;SDS011;9989;48.962;9.182;2022-08-16T06:23:24;10.60;;;5.00;;
19679;SDS011;9989;48.962;9.182;2022-08-16T06:25:50;10.97;;;4.63;;
19679;SDS011;9989;48.962;9.182;2022-08-16T06:28:16;9.90;;;5.37;;
19679;SDS011;9989;48.962;9.182;2022-08-16T06:30:42;10.53;;;5.70;;
19679;SDS011;9989;48.962;9.182;2022-08-16T06:33:08;10.13;;;5.13;;
19679;SDS011;9989;48.962;9.182;2022-08-16T06:35:34;9.23;;;5.00;;
19679;SDS011;9989;48.962;9.182;2022-08-16T06:38:00;10.13;;;4.97;;
19679;SDS011;9989;48.962;9.182;2022-08-16T06:40:27;9.80;;;5.50;;
19679;SDS011;9989;48.962;9.182;2022-08-16T06:42:53;10.10;;;5.07;;
19679;SDS011;9989;48.962;9.182;2022-08-16T06:45:20;11.83;;;4.53;;
19679;SDS011;9989;48.962;9.182;2022-08-16T06:47:46;9.00;;;5.17;;
19679;SDS011;9989;48.962;9.182;2022-08-16T06:50:12;12.40;;;6.37;;
19679;SDS011;9989;48.962;9.182;2022-08-16T06:52:37;13.60;;;6.03;;
19679;SDS011;9989;48.962;9.182;2022-08-16T06:55:04;11.87;;;5.40;;
19679;SDS011;9989;48.962;9.182;2022-08-16T06:57:30;11.17;;;6.13;;
19679;SDS011;9989;48.962;9.182;2022-08-16T06:59:56;12.87;;;6.77;;
19679;SDS011;9989;48.962;9.182;2022-08-16T07:02:22;11.67;;;5.77;;
19679;SDS011;9989;48.962;9.182;2022-08-16T07:04:48;10.13;;;5.37;;
19679;SDS011;9989;48.962;9.182;2022-08-16T07:07:13;11.27;;;6.30;;
19679;SDS011;9989;48.962;9.182;2022-08-16T07:09:39;13.47;;;6.23;;
19679;SDS011;9989;48.962;9.182;2022-08-16T07:12:05;15.93;;;7.40;;
19679;SDS011;9989;48.962;9.182;2022-08-16T07:14:31;11.77;;;5.83;;
19679;SDS011;9989;48.962;9.182;2022-08-16T07:16:57;14.40;;;6.07;;
19679;SDS011;9989;48.962;9.182;2022-08-16T07:19:23;9.60;;;5.90;;
19679;SDS011;9989;48.962;9.182;2022-08-16T07:21:50;11.00;;;6.43;;
19679;SDS011;9989;48.962;9.182;2022-08-16T07:24:16;15.13;;;7.23;;
19679;SDS011;9989;48.962;9.182;2022-08-16T07:26:41;12.07;;;5.23;;
19679;SDS011;9989;48.962;9.182;2022-08-16T07:29:08;13.10;;;6.60;;
19679;SDS011;9989;48.962;9.182;2022-08-16T07:31:34;10.43;;;5.20;;
19679;SDS011;9989;48.962;9.182;2022-08-16T07:33:59;9.17;;;6.00;;
19679;SDS011;9989;48.962;9.182;2022-08-16T07:36:25;9.83;;;5.30;;
19679;SDS011;9989;48.962;9.182;2022-08-16T07:38:51;9.37;;;5.40;;
19679;SDS011;9989;48.962;9.182;2022-08-16T07:41:17;10.70;;;5.37;;
19679;SDS011;9989;48.962;9.182;2022-08-16T07:43:42;13.10;;;5.90;;
19679;SDS011;9989;48.962;9.182;2022-08-16T07:46:09;11.43;;;5.63;;
19679;SDS011;9989;48.962;9.182;2022-08-16T07:48:35;8.83;;;5.20;;
19679;SDS011;9989;48.962;9.182;2022-08-16T07:51:00;10.27;;;6.23;;
19679;SDS011;9989;48.962;9.182;2022-08-16T07:53:28;11.67;;;6.87;;
19679;SDS011;9989;48.962;9.182;2022-08-16T07:55:55;12.90;;;6.20;;
19679;SDS011;9989;48.962;9.182;2022-08-16T07:58:21;12.43;;;6.27;;
19679;SDS011;9989;48.962;9.182;2022-08-16T08:00:46;12.90;;;8.33;;
19679;SDS011;9989;48.962;9.182;2022-08-16T08:03:12;10.27;;;6.13;;
19679;SDS011;9989;48.962;9.182;2022-08-16T08:05:38;10.50;;;6.10;;
19679;SDS011;9989;48.962;9.182;2022-08-16T08:08:04;9.97;;;5.90;;
19679;SDS011;9989;48.962;9.182;2022-08-16T08:10:30;9.97;;;6.40;;
19679;SDS011;9989;48.962;9.182;2022-08-16T08:12:56;12.90;;;6.30;;
19679;SDS011;9989;48.962;9.182;2022-08-16T08:15:21;10.60;;;5.53;;
19679;SDS011;9989;48.962;9.182;2022-08-16T08:17:48;8.73;;;5.63;;
19679;SDS011;9989;48.962;9.182;2022-08-16T08:20:18;13.63;;;5.80;;
19679;SDS011;9989;48.962;9.182;2022-08-16T08:22:46;14.57;;;6.33;;
19679;SDS011;9989;48.962;9.182;2022-08-16T08:25:12;11.60;;;6.20;;
19679;SDS011;9989;48.962;9.182;2022-08-16T08:27:39;13.07;;;5.97;;
19679;SDS011;9989;48.962;9.182;2022-08-16T08:30:04;8.77;;;5.40;;
19679;SDS011;9989;48.962;9.182;2022-08-16T08:32:30;10.30;;;6.03;;
19679;SDS011;9989;48.962;9.182;2022-08-16T08:34:57;13.20;;;5.97;;
19679;SDS011;9989;48.962;9.182;2022-08-16T08:37:24;12.30;;;5.93;;
19679;SDS011;9989;48.962;9.182;2022-08-16T08:39:51;9.43;;;5.73;;
19679;SDS011;9989;48.962;9.182;2022-08-16T08:42:17;8.97;;;5.90;;
19679;SDS011;9989;48.962;9.182;2022-08-16T08:44:43;10.73;;;5.80;;
19679;SDS011;9989;48.962;9.182;2022-08-16T08:47:08;11.97;;;6.83;;
19679;SDS011;9989;48.962;9.182;2022-08-16T08:49:34;11.47;;;7.20;;
19679;SDS011;9989;48.962;9.182;2022-08-16T08:52:02;12.43;;;7.70;;
19679;SDS011;9989;48.962;9.182;2022-08-16T08:54:28;13.63;;;6.97;;
19679;SDS011;9989;48.962;9.182;2022-08-16T08:56:53;13.73;;;7.00;;
19679;SDS011;9989;48.962;9.182;2022-08-16T08:59:19;10.63;;;6.60;;
19679;SDS011;9989;48.962;9.182;2022-08-16T09:01:45;15.10;;;6.80;;
19679;SDS011;9989;48.962;9.182;2022-08-16T09:04:11;9.33;;;5.97;;
19679;SDS011;9989;48.962;9.182;2022-08-16T09:06:37;12.33;;;7.27;;
19679;SDS011;9989;48.962;9.182;2022-08-16T09:09:04;10.70;;;6.90;;
19679;SDS011;9989;48.962;9.182;2022-08-16T09:11:30;10.93;;;6.23;;
19679;SDS011;9989;48.962;9.182;2022-08-16T09:13:58;11.97;;;7.03;;
19679;SDS011;9989;48.962;9.182;2022-08-16T09:16:23;10.30;;;7.17;;
19679;SDS011;9989;48.962;9.182;2022-08-16T09:18:49;12.60;;;6.20;;
19679;SDS011;9989;48.962;9.182;2022-08-16T09:21:15;9.83;;;5.40;;
19679;SDS011;9989;48.962;9.182;2022-08-16T09:23:41;11.00;;;6.27;;
19679;SDS011;9989;48.962;9.182;2022-08-16T09:26:07;9.10;;;6.00;;
19679;SDS011;9989;48.962;9.182;2022-08-16T09:28:35;11.07;;;6.50;;
19679;SDS011;9989;48.962;9.182;2022-08-16T09:31:02;13.03;;;7.17;;
19679;SDS011;9989;48.962;9.182;2022-08-16T09:33:28;10.97;;;7.17;;
19679;SDS011;9989;48.962;9.182;2022-08-16T09:35:54;12.40;;;7.20;;
19679;SDS011;9989;48.962;9.182;2022-08-16T09:38:20;10.07;;;7.07;;
19679;SDS011;9989;48.962;9.182;2022-08-16T09:40:47;10.93;;;7.80;;
19679;SDS011;9989;48.962;9.182;2022-08-16T09:43:15;10.33;;;7.00;;
19679;SDS011;9989;48.962;9.182;2022-08-16T09:45:44;10.63;;;6.70;;
19679;SDS011;9989;48.962;9.182;2022-08-16T09:48:11;10.67;;;7.10;;
19679;SDS011;9989;48.962;9.182;2022-08-16T09:50:39;9.53;;;6.40;;
19679;SDS011;9989;48.962;9.182;2022-08-16T09:53:08;10.10;;;6.60;;
19679;SDS011;9989;48.962;9.182;2022-08-16T09:55:37;10.33;;;6.30;;
19679;SDS011;9989;48.962;9.182;2022-08-16T09:58:03;10.37;;;6.33;;
19679;SDS011;9989;48.962;9.182;2022-08-16T10:00:29;13.37;;;7.43;;
19679;SDS011;9989;48.962;9.182;2022-08-16T10:02:55;10.37;;;7.20;;
19679;SDS011;9989;48.962;9.182;2022-08-16T10:05:22;15.17;;;7.00;;
19679;SDS011;9989;48.962;9.182;2022-08-16T10:07:48;14.00;;;6.47;;
19679;SDS011;9989;48.962;9.182;2022-08-16T10:10:21;10.23;;;6.70;;
19679;SDS011;9989;48.962;9.182;2022-08-16T10:12:47;12.27;;;7.20;;
19679;SDS011;9989;48.962;9.182;2022-08-16T10:15:32;9.87;;;6.50;;
19679;SDS011;9989;48.962;9.182;2022-08-16T10:18:00;11.17;;;7.43;;
19679;SDS011;9989;48.962;9.182;2022-08-16T10:20:33;10.27;;;6.73;;
19679;SDS011;9989;48.962;9.182;2022-08-16T10:23:04;9.50;;;6.60;;
19679;SDS011;9989;48.962;9.182;2022-08-16T10:25:33;10.80;;;6.53;;
19679;SDS011;9989;48.962;9.182;2022-08-16T10:28:00;10.63;;;6.40;;
19679;SDS011;9989;48.962;9.182;2022-08-16T10:30:26;11.93;;;7.50;;
19679;SDS011;9989;48.962;9.182;2022-08-16T10:32:52;12.97;;;6.50;;
19679;SDS011;9989;48.962;9.182;2022-08-16T10:35:18;11.30;;;6.73;;
19679;SDS011;9989;48.962;9.182;2022-08-16T10:37:43;12.17;;;6.57;;
19679;SDS011;9989;48.962;9.182;2022-08-16T10:40:09;10.13;;;6.07;;
19679;SDS011;9989;48.962;9.182;2022-08-16T10:42:37;13.43;;;7.13;;
19679;SDS011;9989;48.962;9.182;2022-08-16T10:45:03;8.97;;;6.00;;
19679;SDS011;9989;48.962;9.182;2022-08-16T10:47:29;10.90;;;7.00;;
19679;SDS011;9989;48.962;9.182;2022-08-16T10:49:55;10.90;;;6.07;;
19679;SDS011;9989;48.962;9.182;2022-08-16T10:52:23;8.80;;;5.50;;
19679;SDS011;9989;48.962;9.182;2022-08-16T10:54:49;9.40;;;6.23;;
19679;SDS011;9989;48.962;9.182;2022-08-16T10:57:15;9.77;;;6.40;;
19679;SDS011;9989;48.962;9.182;2022-08-16T10:59:40;11.90;;;6.93;;
19679;SDS011;9989;48.962;9.182;2022-08-16T11:02:10;11.97;;;6.60;;
19679;SDS011;9989;48.962;9.182;2022-08-16T11:04:36;9.80;;;6.20;;
19679;SDS011;9989;48.962;9.182;2022-08-16T11:07:02;9.70;;;5.83;;
19679;SDS011;9989;48.962;9.182;2022-08-16T11:09:29;9.00;;;6.30;;
19679;SDS011;9989;48.962;9.182;2022-08-16T11:11:55;10.17;;;6.90;;
19679;SDS011;9989;48.962;9.182;2022-08-16T11:14:20;9.40;;;6.70;;
19679;SDS011;9989;48.962;9.182;2022-08-16T11:16:48;9.93;;;6.67;;
19679;SDS011;9989;48.962;9.182;2022-08-16T11:19:13;11.30;;;6.10;;
19679;SDS011;9989;48.962;9.182;2022-08-16T11:21:40;10.00;;;6.40;;
19679;SDS011;9989;48.962;9.182;2022-08-16T11:24:07;9.33;;;6.40;;
19679;SDS011;9989;48.962;9.182;2022-08-16T11:26:33;13.20;;;8.43;;
19679;SDS011;9989;48.962;9.182;2022-08-16T11:28:58;11.20;;;6.87;;
19679;SDS011;9989;48.962;9.182;2022-08-16T11:31:24;9.70;;;6.90;;
19679;SDS011;9989;48.962;9.182;2022-08-16T11:33:50;11.60;;;6.90;;
19679;SDS011;9989;48.962;9.182;2022-08-16T11:36:15;12.50;;;7.10;;
19679;SDS011;9989;48.962;9.182;2022-08-16T11:38:41;10.13;;;6.93;;
19679;SDS011;9989;48.962;9.182;2022-08-16T11:41:07;13.47;;;7.13;;
19679;SDS011;9989;48.962;9.182;2022-08-16T11:43:35;10.83;;;6.60;;
19679;SDS011;9989;48.962;9.182;2022-08-16T11:46:04;10.90;;;7.20;;
19679;SDS011;9989;48.962;9.182;2022-08-16T11:48:32;11.23;;;6.73;;
19679;SDS011;9989;48.962;9.182;2022-08-16T11:50:59;9.53;;;5.93;;
19679;SDS011;9989;48.962;9.182;2022-08-16T11:53:25;12.03;;;6.60;;
19679;SDS011;9989;48.962;9.182;2022-08-16T11:55:53;9.37;;;6.20;;
19679;SDS011;9989;48.962;9.182;2022-08-16T11:58:20;9.00;;;6.43;;
19679;SDS011;9989;48.962;9.182;2022-08-16T12:00:47;11.20;;;6.83;;
19679;SDS011;9989;48.962;9.182;2022-08-16T12:03:13;12.37;;;6.63;;
19679;SDS011;9989;48.962;9.182;2022-08-16T12:05:39;8.67;;;6.10;;
19679;SDS011;9989;48.962;9.182;2022-08-16T12:08:06;8.70;;;6.03;;
19679;SDS011;9989;48.962;9.182;2022-08-16T12:10:33;9.40;;;5.80;;
19679;SDS011;9989;48.962;9.182;2022-08-16T12:13:00;9.13;;;6.60;;
19679;SDS011;9989;48.962;9.182;2022-08-16T12:15:26;8.90;;;5.60;;
19679;SDS011;9989;48.962;9.182;2022-08-16T12:17:52;9.20;;;5.70;;
19679;SDS011;9989;48.962;9.182;2022-08-16T12:20:22;11.00;;;6.67;;
19679;SDS011;9989;48.962;9.182;2022-08-16T12:22:53;8.47;;;5.47;;
19679;SDS011;9989;48.962;9.182;2022-08-16T12:25:21;9.20;;;6.27;;
19679;SDS011;9989;48.962;9.182;2022-08-16T12:27:48;9.90;;;5.77;;
19679;SDS011;9989;48.962;9.182;2022-08-16T12:30:17;10.10;;;5.70;;
19679;SDS011;9989;48.962;9.182;2022-08-16T12:32:45;10.40;;;6.40;;
19679;SDS011;9989;48.962;9.182;2022-08-16T12:35:12;10.50;;;6.57;;
19679;SDS011;9989;48.962;9.182;2022-08-16T12:37:40;10.20;;;7.03;;
19679;SDS011;9989;48.962;9.182;2022-08-16T12:40:07;9.90;;;6.13;;
19679;SDS011;9989;48.962;9.182;2022-08-16T12:42:34;9.60;;;6.47;;
19679;SDS011;9989;48.962;9.182;2022-08-16T12:45:01;10.83;;;5.90;;
19679;SDS011;9989;48.962;9.182;2022-08-16T12:47:28;7.77;;;5.53;;
19679;SDS011;9989;48.962;9.182;2022-08-16T12:50:13;14.13;;;6.83;;
19679;SDS011;9989;48.962;9.182;2022-08-16T12:52:39;9.27;;;6.47;;
19679;SDS011;9989;48.962;9.182;2022-08-16T12:55:05;10.00;;;5.97;;
19679;SDS011;9989;48.962;9.182;2022-08-16T12:57:31;11.50;;;6.67;;
19679;SDS011;9989;48.962;9.182;2022-08-16T12:59:57;8.80;;;5.90;;
19679;SDS011;9989;48.962;9.182;2022-08-16T13:02:24;8.60;;;5.13;;
19679;SDS011;9989;48.962;9.182;2022-08-16T13:04:49;10.07;;;5.87;;
19679;SDS011;9989;48.962;9.182;2022-08-16T13:07:15;9.67;;;5.60;;
19679;SDS011;9989;48.962;9.182;2022-08-16T13:09:42;8.20;;;5.27;;
19679;SDS011;9989;48.962;9.182;2022-08-16T13:12:18;9.43;;;5.10;;
19679;SDS011;9989;48.962;9.182;2022-08-16T13:14:47;8.30;;;5.87;;
19679;SDS011;9989;48.962;9.182;2022-08-16T13:17:16;9.47;;;5.83;;
19679;SDS011;9989;48.962;9.182;2022-08-16T13:19:45;10.47;;;6.10;;
19679;SDS011;9989;48.962;9.182;2022-08-16T13:22:12;10.53;;;5.70;;
19679;SDS011;9989;48.962;9.182;2022-08-16T13:24:37;11.13;;;6.37;;
19679;SDS011;9989;48.962;9.182;2022-08-16T13:27:03;8.97;;;6.03;;
19679;SDS011;9989;48.962;9.182;2022-08-16T13:29:29;9.07;;;5.50;;
19679;SDS011;9989;48.962;9.182;2022-08-16T13:31:54;8.57;;;5.87;;
19679;SDS011;9989;48.962;9.182;2022-08-16T13:34:20;11.23;;;7.27;;
19679;SDS011;9989;48.962;9.182;2022-08-16T13:36:46;10.20;;;6.83;;
19679;SDS011;9989;48.962;9.182;2022-08-16T13:39:11;10.30;;;5.90;;
19679;SDS011;9989;48.962;9.182;2022-08-16T13:41:37;10.00;;;6.10;;
19679;SDS011;9989;48.962;9.182;2022-08-16T13:44:03;8.63;;;5.60;;
19679;SDS011;9989;48.962;9.182;2022-08-16T13:46:31;10.57;;;5.83;;
19679;SDS011;9989;48.962;9.182;2022-08-16T13:48:57;10.07;;;5.67;;
19679;SDS011;9989;48.962;9.182;2022-08-16T13:51:23;9.40;;;6.50;;
19679;SDS011;9989;48.962;9.182;2022-08-16T13:53:51;9.50;;;5.60;;
19679;SDS011;9989;48.962;9.182;2022-08-16T13:56:19;8.80;;;5.70;;
19679;SDS011;9989;48.962;9.182;2022-08-16T13:58:45;8.57;;;5.90;;
19679;SDS011;9989;48.962;9.182;2022-08-16T14:01:12;9.37;;;5.93;;
19679;SDS011;9989;48.962;9.182;2022-08-16T14:03:38;9.93;;;5.90;;
19679;SDS011;9989;48.962;9.182;2022-08-16T14:06:04;9.30;;;6.13;;
19679;SDS011;9989;48.962;9.182;2022-08-16T14:08:31;8.43;;;5.60;;
19679;SDS011;9989;48.962;9.182;2022-08-16T14:10:57;10.27;;;5.63;;
19679;SDS011;9989;48.962;9.182;2022-08-16T14:13:23;8.53;;;5.30;;
19679;SDS011;9989;48.962;9.182;2022-08-16T14:15:49;10.20;;;6.10;;
19679;SDS011;9989;48.962;9.182;2022-08-16T14:18:14;16.30;;;5.77;;
19679;SDS011;9989;48.962;9.182;2022-08-16T14:20:40;9.00;;;5.20;;
19679;SDS011;9989;48.962;9.182;2022-08-16T14:23:06;9.23;;;5.70;;
19679;SDS011;9989;48.962;9.182;2022-08-16T14:25:31;8.37;;;5.53;;
19679;SDS011;9989;48.962;9.182;2022-08-16T14:27:57;8.87;;;5.80;;
19679;SDS011;9989;48.962;9.182;2022-08-16T14:30:23;9.07;;;6.27;;
19679;SDS011;9989;48.962;9.182;2022-08-16T14:32:49;9.23;;;5.80;;
19679;SDS011;9989;48.962;9.182;2022-08-16T14:35:20;8.87;;;6.03;;
19679;SDS011;9989;48.962;9.182;2022-08-16T14:37:50;8.93;;;5.80;;
19679;SDS011;9989;48.962;9.182;2022-08-16T14:40:17;8.63;;;6.00;;
19679;SDS011;9989;48.962;9.182;2022-08-16T14:42:44;10.00;;;6.43;;
19679;SDS011;9989;48.962;9.182;2022-08-16T14:45:12;10.47;;;5.70;;
19679;SDS011;9989;48.962;9.182;2022-08-16T14:47:40;9.50;;;5.47;;
19679;SDS011;9989;48.962;9.182;2022-08-16T14:50:07;9.63;;;5.70;;
19679;SDS011;9989;48.962;9.182;2022-08-16T14:52:37;8.23;;;5.40;;
19679;SDS011;9989;48.962;9.182;2022-08-16T14:55:03;9.00;;;6.23;;
19679;SDS011;9989;48.962;9.182;2022-08-16T14:57:29;9.27;;;6.60;;